sensor_id;sensor_type;location;lat;lon;timestamp;P1;P2;P0
57373;PMS7003;43964;53.890;25.340;2023-03-14T00:04:03;2;1.2;0.6
57373;PMS7003;43964;53.890;25.340;2023-03-14T00:08:41;1.8;1.2;0.6
57373;PMS7003;43964;53.890;25.340;2023-03-14T00:14:18;1.5;0.8;0.3
57373;PMS7003;43964;53.890;25.340;2023-03-14T00:18:57;0.8;0.8;0.2
57373;PMS7003;43964;53.890;25.340;2023-03-14T00:23:44;1.8;1;0.5
57373;PMS7003;43964;53.890;25.340;2023-03-14T00:29:00;0.8;0.6;0.2
57373;PMS7003;43964;53.890;25.340;2023-03-14T00:34:14;1.2;0.8;0.2
57373;PMS7003;43964;53.890;25.340;2023-03-14T00:38:49;1.3;0.7;0
57373;PMS7003;43964;53.890;25.340;2023-03-14T00:44:00;1;0.6;0.4
57373;PMS7003;43964;53.890;25.340;2023-03-14T00:49:08;0.4;0.4;0
57373;PMS7003;43964;53.890;25.340;2023-03-14T00:54:02;1.2;1.2;0.6
57373;PMS7003;43964;53.890;25.340;2023-03-14T00:58:54;1.3;1.3;0.3
57373;PMS7003;43964;53.890;25.340;2023-03-14T01:03:44;1;1;0.6
57373;PMS7003;43964;53.890;25.340;2023-03-14T01:09:16;1.2;0.8;0.2
57373;PMS7003;43964;53.890;25.340;2023-03-14T01:14:16;1;0.6;0.2
57373;PMS7003;43964;53.890;25.340;2023-03-14T01:18:45;1.2;1;0.4
57373;PMS7003;43964;53.890;25.340;2023-03-14T01:23:53;1.2;0.8;0
57373;PMS7003;43964;53.890;25.340;2023-03-14T01:28:56;1.4;0.8;0.4
57373;PMS7003;43964;53.890;25.340;2023-03-14T01:33:45;0.4;0.4;0.2
57373;PMS7003;43964;53.890;25.340;2023-03-14T01:38:35;0.6;0.4;0
57373;PMS7003;43964;53.890;25.340;2023-03-14T01:44:16;1.2;0.4;0
57373;PMS7003;43964;53.890;25.340;2023-03-14T01:48:45;0.3;0;0
57373;PMS7003;43964;53.890;25.340;2023-03-14T01:53:47;0.8;0.8;0
57373;PMS7003;43964;53.890;25.340;2023-03-14T01:59:16;1.5;0.5;0.5
57373;PMS7003;43964;53.890;25.340;2023-03-14T02:03:35;0.8;0.8;0
57373;PMS7003;43964;53.890;25.340;2023-03-14T02:08:35;0.6;0.6;0.2
57373;PMS7003;43964;53.890;25.340;2023-03-14T02:13:57;1;0;0
57373;PMS7003;43964;53.890;25.340;2023-03-14T02:19:17;0.4;0.2;0
57373;PMS7003;43964;53.890;25.340;2023-03-14T02:23:48;0.4;0.2;0.2
57373;PMS7003;43964;53.890;25.340;2023-03-14T02:28:57;0.2;0;0
57373;PMS7003;43964;53.890;25.340;2023-03-14T02:33:35;0.8;0.4;0.2
57373;PMS7003;43964;53.890;25.340;2023-03-14T02:39:05;0.2;0.2;0
57373;PMS7003;43964;53.890;25.340;2023-03-14T02:43:35;0.4;0;0
57373;PMS7003;43964;53.890;25.340;2023-03-14T02:48:49;0.3;0;0
57373;PMS7003;43964;53.890;25.340;2023-03-14T02:54:03;1.2;0.8;0
57373;PMS7003;43964;53.890;25.340;2023-03-14T02:59:16;0.8;0.6;0
57373;PMS7003;43964;53.890;25.340;2023-03-14T03:04:16;0.4;0;0
57373;PMS7003;43964;53.890;25.340;2023-03-14T03:09:03;1;1;0
57373;PMS7003;43964;53.890;25.340;2023-03-14T03:13:35;1.2;0.8;0.4
57373;PMS7003;43964;53.890;25.340;2023-03-14T03:19:16;0.4;0;0
57373;PMS7003;43964;53.890;25.340;2023-03-14T03:23:56;0.6;0.4;0
57373;PMS7003;43964;53.890;25.340;2023-03-14T03:28:38;0.4;0.2;0.2
57373;PMS7003;43964;53.890;25.340;2023-03-14T03:34:02;1.8;0.3;0
57373;PMS7003;43964;53.890;25.340;2023-03-14T03:39:17;1.5;0.5;0.3
57373;PMS7003;43964;53.890;25.340;2023-03-14T03:43:35;1;1;0
57373;PMS7003;43964;53.890;25.340;2023-03-14T03:49:17;1.5;0.3;0
57373;PMS7003;43964;53.890;25.340;2023-03-14T03:54:16;1.6;1;0
57373;PMS7003;43964;53.890;25.340;2023-03-14T03:59:03;1.8;0.8;0.5
57373;PMS7003;43964;53.890;25.340;2023-03-14T04:03:55;1.5;1.3;0.8
57373;PMS7003;43964;53.890;25.340;2023-03-14T04:09:03;1.2;0.6;0.4
57373;PMS7003;43964;53.890;25.340;2023-03-14T04:14:03;1;1;0.5
57373;PMS7003;43964;53.890;25.340;2023-03-14T04:19:11;1.3;0.5;0.3
57373;PMS7003;43964;53.890;25.340;2023-03-14T04:23:35;1.4;1;0.4
57373;PMS7003;43964;53.890;25.340;2023-03-14T04:29:17;2;1.4;0.4
57373;PMS7003;43964;53.890;25.340;2023-03-14T04:33:57;1.3;1;0.3
57373;PMS7003;43964;53.890;25.340;2023-03-14T04:38:35;1.8;1.5;0.5
57373;PMS7003;43964;53.890;25.340;2023-03-14T04:44:03;1.8;1;0.5
57373;PMS7003;43964;53.890;25.340;2023-03-14T04:49:17;1.2;1.2;0.4
57373;PMS7003;43964;53.890;25.340;2023-03-14T04:53:45;2;0.8;0.2
57373;PMS7003;43964;53.890;25.340;2023-03-14T04:58:55;0.6;0.6;0.2
57373;PMS7003;43964;53.890;25.340;2023-03-14T05:04:15;1.6;1;0.8
57373;PMS7003;43964;53.890;25.340;2023-03-14T05:08:35;2.2;1.6;0.8
57373;PMS7003;43964;53.890;25.340;2023-03-14T05:13:35;1.6;1.4;0.8
57373;PMS7003;43964;53.890;25.340;2023-03-14T05:18:57;1.8;1.4;0.4
57373;PMS7003;43964;53.890;25.340;2023-03-14T05:24:17;2;1;0
57373;PMS7003;43964;53.890;25.340;2023-03-14T05:28:59;0.8;0.8;0.3
57373;PMS7003;43964;53.890;25.340;2023-03-14T05:33:55;1.8;1.5;0.5
57373;PMS7003;43964;53.890;25.340;2023-03-14T05:38:35;1.2;0.8;0.6
57373;PMS7003;43964;53.890;25.340;2023-03-14T05:44:01;1;0.6;0
57373;PMS7003;43964;53.890;25.340;2023-03-14T05:48:45;1.2;0.8;0
57373;PMS7003;43964;53.890;25.340;2023-03-14T05:53:35;0.4;0.4;0
57373;PMS7003;43964;53.890;25.340;2023-03-14T05:58:35;0.2;0;0
57373;PMS7003;43964;53.890;25.340;2023-03-14T06:03:55;0.4;0.2;0
57373;PMS7003;43964;53.890;25.340;2023-03-14T06:09:17;0;0;0
57373;PMS7003;43964;53.890;25.340;2023-03-14T06:14:03;0.2;0;0
57373;PMS7003;43964;53.890;25.340;2023-03-14T06:18:35;1.2;0.4;0
57373;PMS7003;43964;53.890;25.340;2023-03-14T06:24:17;0;0;0
57373;PMS7003;43964;53.890;25.340;2023-03-14T06:28:57;0.6;0.2;0
57373;PMS7003;43964;53.890;25.340;2023-03-14T06:33:45;0.4;0;0
57373;PMS7003;43964;53.890;25.340;2023-03-14T06:39:01;0.4;0;0
57373;PMS7003;43964;53.890;25.340;2023-03-14T06:44:17;0.2;0;0
57373;PMS7003;43964;53.890;25.340;2023-03-14T06:48:57;0.6;0.2;0
57373;PMS7003;43964;53.890;25.340;2023-03-14T06:54:17;0.3;0.3;0
57373;PMS7003;43964;53.890;25.340;2023-03-14T06:59:16;0;0;0
57373;PMS7003;43964;53.890;25.340;2023-03-14T07:09:11;1;1;0
57373;PMS7003;43964;53.890;25.340;2023-03-14T07:14:03;0;0;0
57373;PMS7003;43964;53.890;25.340;2023-03-14T07:19:03;0.2;0;0
57373;PMS7003;43964;53.890;25.340;2023-03-14T07:24:11;0;0;0
57373;PMS7003;43964;53.890;25.340;2023-03-14T07:28:35;0.2;0;0
57373;PMS7003;43964;53.890;25.340;2023-03-14T07:34:17;0;0;0
57373;PMS7003;43964;53.890;25.340;2023-03-14T07:39:03;0;0;0
57373;PMS7003;43964;53.890;25.340;2023-03-14T07:43:57;0.6;0.2;0
57373;PMS7003;43964;53.890;25.340;2023-03-14T07:48:49;1.2;0;0
57373;PMS7003;43964;53.890;25.340;2023-03-14T07:54:09;0.3;0;0
57373;PMS7003;43964;53.890;25.340;2023-03-14T07:58:57;0.3;0;0
57373;PMS7003;43964;53.890;25.340;2023-03-14T08:03:41;0;0;0
57373;PMS7003;43964;53.890;25.340;2023-03-14T08:09:01;0;0;0
57373;PMS7003;43964;53.890;25.340;2023-03-14T08:13:35;0.2;0;0
57373;PMS7003;43964;53.890;25.340;2023-03-14T08:18:45;0;0;0
57373;PMS7003;43964;53.890;25.340;2023-03-14T08:23:35;0.2;0;0
57373;PMS7003;43964;53.890;25.340;2023-03-14T08:29:15;0;0;0
57373;PMS7003;43964;53.890;25.340;2023-03-14T08:34:07;0.2;0;0
57373;PMS7003;43964;53.890;25.340;2023-03-14T08:38:35;0.8;0;0
57373;PMS7003;43964;53.890;25.340;2023-03-14T08:43:35;0.3;0;0
57373;PMS7003;43964;53.890;25.340;2023-03-14T08:48:59;0;0;0
57373;PMS7003;43964;53.890;25.340;2023-03-14T08:53:43;0;0;0
57373;PMS7003;43964;53.890;25.340;2023-03-14T08:58:45;1;0;0
57373;PMS7003;43964;53.890;25.340;2023-03-14T09:03:47;0;0;0
57373;PMS7003;43964;53.890;25.340;2023-03-14T09:08:35;0;0;0
57373;PMS7003;43964;53.890;25.340;2023-03-14T09:14:17;0;0;0
57373;PMS7003;43964;53.890;25.340;2023-03-14T09:19:03;0;0;0
57373;PMS7003;43964;53.890;25.340;2023-03-14T09:23:45;0.2;0;0
57373;PMS7003;43964;53.890;25.340;2023-03-14T09:29:17;0.2;0;0
57373;PMS7003;43964;53.890;25.340;2023-03-14T09:33:45;0;0;0
57373;PMS7003;43964;53.890;25.340;2023-03-14T09:39:17;0;0;0
57373;PMS7003;43964;53.890;25.340;2023-03-14T09:44:04;0;0;0
57373;PMS7003;43964;53.890;25.340;2023-03-14T09:49:18;0;0;0
57373;PMS7003;43964;53.890;25.340;2023-03-14T09:53:57;0.2;0;0
57373;PMS7003;43964;53.890;25.340;2023-03-14T09:59:00;0;0;0
57373;PMS7003;43964;53.890;25.340;2023-03-14T10:04:17;0.4;0.2;0
57373;PMS7003;43964;53.890;25.340;2023-03-14T10:08:49;0.2;0;0
57373;PMS7003;43964;53.890;25.340;2023-03-14T10:14:05;0;0;0
57373;PMS7003;43964;53.890;25.340;2023-03-14T10:19:03;0.5;0.3;0
57373;PMS7003;43964;53.890;25.340;2023-03-14T10:23:37;0;0;0
57373;PMS7003;43964;53.890;25.340;2023-03-14T10:29:11;0;0;0
57373;PMS7003;43964;53.890;25.340;2023-03-14T10:33:57;0;0;0
57373;PMS7003;43964;53.890;25.340;2023-03-14T10:39:22;0;0;0
57373;PMS7003;43964;53.890;25.340;2023-03-14T10:44:03;0;0;0
57373;PMS7003;43964;53.890;25.340;2023-03-14T10:48:36;0;0;0
57373;PMS7003;43964;53.890;25.340;2023-03-14T10:53:50;0.4;0;0
57373;PMS7003;43964;53.890;25.340;2023-03-14T10:58:38;0;0;0
57373;PMS7003;43964;53.890;25.340;2023-03-14T11:03:36;0;0;0
57373;PMS7003;43964;53.890;25.340;2023-03-14T11:09:05;0;0;0
57373;PMS7003;43964;53.890;25.340;2023-03-14T11:14:07;0;0;0
57373;PMS7003;43964;53.890;25.340;2023-03-14T11:18:49;0.4;0.2;0
57373;PMS7003;43964;53.890;25.340;2023-03-14T11:24:20;0.4;0;0
57373;PMS7003;43964;53.890;25.340;2023-03-14T11:28:56;0;0;0
57373;PMS7003;43964;53.890;25.340;2023-03-14T11:33:35;0;0;0
57373;PMS7003;43964;53.890;25.340;2023-03-14T11:39:17;0;0;0
57373;PMS7003;43964;53.890;25.340;2023-03-14T11:44:18;0;0;0
57373;PMS7003;43964;53.890;25.340;2023-03-14T11:48:36;0;0;0
57373;PMS7003;43964;53.890;25.340;2023-03-14T11:54:14;0;0;0
57373;PMS7003;43964;53.890;25.340;2023-03-14T11:59:12;0.3;0;0
57373;PMS7003;43964;53.890;25.340;2023-03-14T12:03:52;0;0;0
57373;PMS7003;43964;53.890;25.340;2023-03-14T12:08:57;0;0;0
57373;PMS7003;43964;53.890;25.340;2023-03-14T12:13:36;0;0;0
57373;PMS7003;43964;53.890;25.340;2023-03-14T12:19:29;0.2;0;0
57373;PMS7003;43964;53.890;25.340;2023-03-14T12:24:18;0;0;0
57373;PMS7003;43964;53.890;25.340;2023-03-14T12:28:35;0;0;0
57373;PMS7003;43964;53.890;25.340;2023-03-14T12:34:25;0;0;0
57373;PMS7003;43964;53.890;25.340;2023-03-14T12:39:00;0;0;0
57373;PMS7003;43964;53.890;25.340;2023-03-14T12:43:35;0.2;0;0
57373;PMS7003;43964;53.890;25.340;2023-03-14T12:49:03;0;0;0
57373;PMS7003;43964;53.890;25.340;2023-03-14T12:54:38;0;0;0
57373;PMS7003;43964;53.890;25.340;2023-03-14T12:59:45;0;0;0
57373;PMS7003;43964;53.890;25.340;2023-03-14T13:04:13;0;0;0
57373;PMS7003;43964;53.890;25.340;2023-03-14T13:10:22;0.6;0;0
57373;PMS7003;43964;53.890;25.340;2023-03-14T13:14:07;0.3;0;0
57373;PMS7003;43964;53.890;25.340;2023-03-14T13:18:59;0;0;0
57373;PMS7003;43964;53.890;25.340;2023-03-14T13:24:04;0.2;0;0
57373;PMS7003;43964;53.890;25.340;2023-03-14T13:29:14;0.2;0;0
57373;PMS7003;43964;53.890;25.340;2023-03-14T13:34:10;0;0;0
57373;PMS7003;43964;53.890;25.340;2023-03-14T13:38:35;0.2;0;0
57373;PMS7003;43964;53.890;25.340;2023-03-14T13:44:17;0;0;0
57373;PMS7003;43964;53.890;25.340;2023-03-14T13:49:03;0;0;0
57373;PMS7003;43964;53.890;25.340;2023-03-14T13:53:41;0;0;0
57373;PMS7003;43964;53.890;25.340;2023-03-14T13:58:45;0;0;0
57373;PMS7003;43964;53.890;25.340;2023-03-14T14:04:14;0;0;0
57373;PMS7003;43964;53.890;25.340;2023-03-14T14:08:58;0.2;0;0
57373;PMS7003;43964;53.890;25.340;2023-03-14T14:13:53;0;0;0
57373;PMS7003;43964;53.890;25.340;2023-03-14T14:19:05;0;0;0
57373;PMS7003;43964;53.890;25.340;2023-03-14T14:23:45;0;0;0
57373;PMS7003;43964;53.890;25.340;2023-03-14T14:29:26;0.4;0;0
57373;PMS7003;43964;53.890;25.340;2023-03-14T14:34:00;0;0;0
57373;PMS7003;43964;53.890;25.340;2023-03-14T14:38:50;0;0;0
57373;PMS7003;43964;53.890;25.340;2023-03-14T14:44:11;0;0;0
57373;PMS7003;43964;53.890;25.340;2023-03-14T14:49:19;0;0;0
57373;PMS7003;43964;53.890;25.340;2023-03-14T14:53:49;0;0;0
57373;PMS7003;43964;53.890;25.340;2023-03-14T14:59:01;0;0;0
57373;PMS7003;43964;53.890;25.340;2023-03-14T15:03:59;0;0;0
57373;PMS7003;43964;53.890;25.340;2023-03-14T15:09:05;0.2;0;0
57373;PMS7003;43964;53.890;25.340;2023-03-14T15:13:57;0;0;0
57373;PMS7003;43964;53.890;25.340;2023-03-14T15:18:35;0;0;0
57373;PMS7003;43964;53.890;25.340;2023-03-14T15:24:19;0;0;0
57373;PMS7003;43964;53.890;25.340;2023-03-14T15:29:19;0;0;0
57373;PMS7003;43964;53.890;25.340;2023-03-14T15:33:35;0.4;0;0
57373;PMS7003;43964;53.890;25.340;2023-03-14T15:39:17;0.4;0;0
57373;PMS7003;43964;53.890;25.340;2023-03-14T15:44:05;0;0;0
57373;PMS7003;43964;53.890;25.340;2023-03-14T15:48:45;0;0;0
57373;PMS7003;43964;53.890;25.340;2023-03-14T15:53:49;0;0;0
57373;PMS7003;43964;53.890;25.340;2023-03-14T15:59:19;0;0;0
57373;PMS7003;43964;53.890;25.340;2023-03-14T16:03:59;0;0;0
57373;PMS7003;43964;53.890;25.340;2023-03-14T16:08:51;0;0;0
57373;PMS7003;43964;53.890;25.340;2023-03-14T16:14:19;0;0;0
57373;PMS7003;43964;53.890;25.340;2023-03-14T16:18:45;0;0;0
57373;PMS7003;43964;53.890;25.340;2023-03-14T16:23:57;0;0;0
57373;PMS7003;43964;53.890;25.340;2023-03-14T16:28:45;0;0;0
57373;PMS7003;43964;53.890;25.340;2023-03-14T16:34:01;0;0;0
57373;PMS7003;43964;53.890;25.340;2023-03-14T16:39:13;0;0;0
57373;PMS7003;43964;53.890;25.340;2023-03-14T16:43:35;0;0;0
57373;PMS7003;43964;53.890;25.340;2023-03-14T16:49:21;0;0;0
57373;PMS7003;43964;53.890;25.340;2023-03-14T16:54:05;0;0;0
57373;PMS7003;43964;53.890;25.340;2023-03-14T16:58:45;0;0;0
57373;PMS7003;43964;53.890;25.340;2023-03-14T17:03:51;0;0;0
57373;PMS7003;43964;53.890;25.340;2023-03-14T17:09:13;0;0;0
57373;PMS7003;43964;53.890;25.340;2023-03-14T17:13:35;0;0;0
57373;PMS7003;43964;53.890;25.340;2023-03-14T17:19:07;0;0;0
57373;PMS7003;43964;53.890;25.340;2023-03-14T17:23:57;0.2;0;0
57373;PMS7003;43964;53.890;25.340;2023-03-14T17:28:35;0;0;0
57373;PMS7003;43964;53.890;25.340;2023-03-14T17:34:21;0;0;0
57373;PMS7003;43964;53.890;25.340;2023-03-14T17:38:45;0;0;0
57373;PMS7003;43964;53.890;25.340;2023-03-14T17:43:59;0;0;0
57373;PMS7003;43964;53.890;25.340;2023-03-14T17:49:13;0;0;0
57373;PMS7003;43964;53.890;25.340;2023-03-14T17:54:21;0.2;0;0
57373;PMS7003;43964;53.890;25.340;2023-03-14T17:58:45;0;0;0
57373;PMS7003;43964;53.890;25.340;2023-03-14T18:04:03;0;0;0
57373;PMS7003;43964;53.890;25.340;2023-03-14T18:09:11;0;0;0
57373;PMS7003;43964;53.890;25.340;2023-03-14T18:14:07;0;0;0
57373;PMS7003;43964;53.890;25.340;2023-03-14T18:18:57;0;0;0
57373;PMS7003;43964;53.890;25.340;2023-03-14T18:23:35;0;0;0
57373;PMS7003;43964;53.890;25.340;2023-03-14T18:29:19;0;0;0
57373;PMS7003;43964;53.890;25.340;2023-03-14T18:33:55;0;0;0
57373;PMS7003;43964;53.890;25.340;2023-03-14T18:39:03;0;0;0
57373;PMS7003;43964;53.890;25.340;2023-03-14T18:44:19;0;0;0
57373;PMS7003;43964;53.890;25.340;2023-03-14T18:48:57;0;0;0
57373;PMS7003;43964;53.890;25.340;2023-03-14T18:53:43;0;0;0
57373;PMS7003;43964;53.890;25.340;2023-03-14T18:58:49;0.2;0;0
57373;PMS7003;43964;53.890;25.340;2023-03-14T19:04:19;0.2;0;0
57373;PMS7003;43964;53.890;25.340;2023-03-14T19:08:43;0;0;0
57373;PMS7003;43964;53.890;25.340;2023-03-14T19:13:43;0;0;0
57373;PMS7003;43964;53.890;25.340;2023-03-14T19:19:19;0;0;0
57373;PMS7003;43964;53.890;25.340;2023-03-14T19:23:36;0.2;0;0
57373;PMS7003;43964;53.890;25.340;2023-03-14T19:28:43;0;0;0
57373;PMS7003;43964;53.890;25.340;2023-03-14T19:33:35;0;0;0
57373;PMS7003;43964;53.890;25.340;2023-03-14T19:39:19;0;0;0
57373;PMS7003;43964;53.890;25.340;2023-03-14T19:43:47;0;0;0
57373;PMS7003;43964;53.890;25.340;2023-03-14T19:48:57;0;0;0
57373;PMS7003;43964;53.890;25.340;2023-03-14T19:53:49;0.2;0;0
57373;PMS7003;43964;53.890;25.340;2023-03-14T19:59:03;0;0;0
57373;PMS7003;43964;53.890;25.340;2023-03-14T20:03:43;0;0;0
57373;PMS7003;43964;53.890;25.340;2023-03-14T20:08:49;0;0;0
57373;PMS7003;43964;53.890;25.340;2023-03-14T20:13:53;0;0;0
57373;PMS7003;43964;53.890;25.340;2023-03-14T20:18:43;0;0;0
57373;PMS7003;43964;53.890;25.340;2023-03-14T20:24:19;0;0;0
57373;PMS7003;43964;53.890;25.340;2023-03-14T20:29:05;0;0;0
57373;PMS7003;43964;53.890;25.340;2023-03-14T20:34:05;0;0;0
57373;PMS7003;43964;53.890;25.340;2023-03-14T20:39:19;0;0;0
57373;PMS7003;43964;53.890;25.340;2023-03-14T20:43:57;0.2;0;0
57373;PMS7003;43964;53.890;25.340;2023-03-14T20:48:35;0;0;0
57373;PMS7003;43964;53.890;25.340;2023-03-14T20:54:11;0;0;0
57373;PMS7003;43964;53.890;25.340;2023-03-14T20:59:19;0;0;0
57373;PMS7003;43964;53.890;25.340;2023-03-14T21:04:03;0.4;0;0
57373;PMS7003;43964;53.890;25.340;2023-03-14T21:09:03;0;0;0
57373;PMS7003;43964;53.890;25.340;2023-03-14T21:14:11;0.2;0;0
57373;PMS7003;43964;53.890;25.340;2023-03-14T21:19:05;0;0;0
57373;PMS7003;43964;53.890;25.340;2023-03-14T21:23:53;0;0;0
57373;PMS7003;43964;53.890;25.340;2023-03-14T21:29:17;0;0;0
57373;PMS7003;43964;53.890;25.340;2023-03-14T21:33:55;0;0;0
57373;PMS7003;43964;53.890;25.340;2023-03-14T21:39:19;0;0;0
57373;PMS7003;43964;53.890;25.340;2023-03-14T21:43:43;0.4;0.2;0
57373;PMS7003;43964;53.890;25.340;2023-03-14T21:49:19;0.6;0.4;0
57373;PMS7003;43964;53.890;25.340;2023-03-14T21:53:57;0.2;0;0
57373;PMS7003;43964;53.890;25.340;2023-03-14T21:58:49;0;0;0
57373;PMS7003;43964;53.890;25.340;2023-03-14T22:03:43;0.4;0.2;0
57373;PMS7003;43964;53.890;25.340;2023-03-14T22:09:19;0;0;0
57373;PMS7003;43964;53.890;25.340;2023-03-14T22:13:43;0.4;0;0
57373;PMS7003;43964;53.890;25.340;2023-03-14T22:18:55;0;0;0
57373;PMS7003;43964;53.890;25.340;2023-03-14T22:24:19;0.4;0;0
57373;PMS7003;43964;53.890;25.340;2023-03-14T22:28:43;0;0;0
57373;PMS7003;43964;53.890;25.340;2023-03-14T22:33:51;0;0;0
57373;PMS7003;43964;53.890;25.340;2023-03-14T22:38:35;0;0;0
57373;PMS7003;43964;53.890;25.340;2023-03-14T22:44:19;0;0;0
57373;PMS7003;43964;53.890;25.340;2023-03-14T22:49:19;0;0;0
57373;PMS7003;43964;53.890;25.340;2023-03-14T22:53:57;0;0;0
57373;PMS7003;43964;53.890;25.340;2023-03-14T22:58:49;0;0;0
57373;PMS7003;43964;53.890;25.340;2023-03-14T23:04:01;0.2;0;0
57373;PMS7003;43964;53.890;25.340;2023-03-14T23:08:35;0;0;0
57373;PMS7003;43964;53.890;25.340;2023-03-14T23:13:49;0;0;0
57373;PMS7003;43964;53.890;25.340;2023-03-14T23:18:59;0;0;0
57373;PMS7003;43964;53.890;25.340;2023-03-14T23:23:55;0;0;0
57373;PMS7003;43964;53.890;25.340;2023-03-14T23:29:19;0;0;0
57373;PMS7003;43964;53.890;25.340;2023-03-14T23:34:05;0.3;0.3;0
57373;PMS7003;43964;53.890;25.340;2023-03-14T23:38:49;0;0;0
57373;PMS7003;43964;53.890;25.340;2023-03-14T23:44:19;0;0;0
57373;PMS7003;43964;53.890;25.340;2023-03-14T23:48:57;0;0;0
57373;PMS7003;43964;53.890;25.340;2023-03-14T23:53:43;0;0;0
57373;PMS7003;43964;53.890;25.340;2023-03-14T23:59:03;0;0;0
